Time;durP1;ratioP1;P1;durP2;ratioP2;P2;SDS_P1;SDS_P2;PMS_P1;PMS_P2;Temp;Humidity;BMP_temperature;BMP_pressure;BME280_temperature;BME280_humidity;BME280_pressure;Samples;Min_cycle;Max_cycle;Signal;HPM_P1;HPM_P2
2022/09/25 00:01:46;;;;;;;2.03;1.92;;;9.60;99.90;;;;;;4931974;29;20114;-78
2022/09/25 00:04:13;;;;;;;4.60;2.28;;;9.60;99.90;;;;;;4932106;29;20058;-77
2022/09/25 00:06:41;;;;;;;3.00;2.00;;;9.60;99.90;;;;;;4931984;29;20458;-77
2022/09/25 00:09:08;;;;;;;5.82;2.20;;;9.60;99.90;;;;;;4931336;29;20055;-77
2022/09/25 00:11:37;;;;;;;2.95;2.17;;;9.60;99.90;;;;;;4932774;29;20427;-78
2022/09/25 00:14:06;;;;;;;2.42;1.83;;;9.60;99.90;;;;;;4916061;29;20058;-78
2022/09/25 00:16:33;;;;;;;3.00;2.03;;;9.60;99.90;;;;;;4933366;29;20126;-79
2022/09/25 00:21:51;;;;;;;3.03;2.00;;;9.60;99.90;;;;;;4932679;29;20428;-76
2022/09/25 00:24:19;;;;;;;2.42;1.83;;;9.70;99.90;;;;;;4931932;29;20055;-78
2022/09/25 00:26:46;;;;;;;2.45;2.10;;;9.70;99.90;;;;;;4932437;29;20409;-77
2022/09/25 00:29:19;;;;;;;2.65;2.00;;;9.60;99.90;;;;;;4931837;29;20508;-77
2022/09/25 00:31:46;;;;;;;;;;;9.60;99.90;;;;;;4932664;29;20060;-77
2022/09/25 00:34:13;;;;;;;3.00;1.83;;;9.60;99.90;;;;;;4915524;29;19933;-77
2022/09/25 00:36:40;;;;;;;2.75;2.25;;;9.60;99.90;;;;;;4932732;29;20052;-78
2022/09/25 00:39:07;;;;;;;3.70;2.65;;;9.50;99.90;;;;;;4932060;29;20047;-73
2022/09/25 00:41:35;;;;;;;3.25;2.53;;;9.50;99.90;;;;;;4931595;29;20047;-73
2022/09/25 00:44:04;;;;;;;2.75;2.55;;;9.50;99.90;;;;;;4915533;29;20058;-73
2022/09/25 00:46:36;;;;;;;5.18;2.28;;;9.40;99.90;;;;;;4931736;29;20055;-73
2022/09/25 00:49:09;;;;;;;3.58;2.08;;;9.40;99.90;;;;;;4933364;29;20055;-74
2022/09/25 00:51:41;;;;;;;5.05;2.50;;;9.40;99.90;;;;;;4932011;29;20938;-74
2022/09/25 00:54:14;;;;;;;2.88;2.30;;;9.40;99.90;;;;;;4932937;29;20428;-73
2022/09/25 00:56:44;;;;;;;2.60;2.08;;;9.30;99.90;;;;;;4915673;29;20044;-74
2022/09/25 00:59:15;;;;;;;2.80;2.22;;;9.30;99.90;;;;;;4931392;29;20059;-74
2022/09/25 01:01:44;;;;;;;2.78;2.13;;;9.30;99.90;;;;;;4935228;29;20118;-75
2022/09/25 01:04:12;;;;;;;2.88;2.60;;;9.30;99.90;;;;;;4935242;29;20043;-75
2022/09/25 01:06:39;;;;;;;3.88;2.13;;;9.20;99.90;;;;;;4919524;29;20405;-75
2022/09/25 01:09:07;;;;;;;6.00;2.40;;;9.20;99.90;;;;;;4918985;29;20127;-73
2022/09/25 01:11:34;;;;;;;4.18;2.10;;;9.20;99.90;;;;;;4936014;29;20040;-72
2022/09/25 01:14:05;;;;;;;3.30;1.88;;;9.20;99.90;;;;;;4936055;29;20047;-72
2022/09/25 01:16:38;;;;;;;3.72;1.90;;;9.20;99.90;;;;;;4935949;29;20059;-73
2022/09/25 01:19:21;;;;;;;2.08;1.88;;;9.20;99.90;;;;;;4934706;29;20047;-73
2022/09/25 01:21:52;;;;;;;2.25;2.05;;;9.20;99.90;;;;;;4936375;29;20110;-74
2022/09/25 01:24:47;;;;;;;3.40;2.33;;;9.10;99.90;;;;;;4935831;29;20055;-74
2022/09/25 01:27:42;;;;;;;1.90;1.70;;;9.20;99.90;;;;;;4918453;29;20044;-75
2022/09/25 01:30:13;;;;;;;3.40;2.28;;;9.20;99.90;;;;;;4923809;29;20150;-74
2022/09/25 01:32:53;;;;;;;5.13;2.22;;;9.10;99.90;;;;;;4934585;29;20073;-74
2022/09/25 01:35:32;;;;;;;2.00;1.75;;;9.10;99.90;;;;;;4930941;29;20066;-73
2022/09/25 01:38:07;;;;;;;2.10;1.90;;;9.10;99.90;;;;;;4935406;29;20059;-73
2022/09/25 01:40:41;;;;;;;1.98;1.88;;;9.10;99.90;;;;;;4935998;29;20051;-74
2022/09/25 01:43:13;;;;;;;2.72;1.83;;;9.10;99.90;;;;;;4935367;29;20052;-74
2022/09/25 01:45:46;;;;;;;2.42;1.83;;;9.10;99.90;;;;;;4934288;29;20044;-74
2022/09/25 01:48:16;;;;;;;3.33;2.25;;;9.10;99.90;;;;;;4933840;29;20058;-73
2022/09/25 01:50:49;;;;;;;2.35;1.65;;;9.00;99.90;;;;;;4935824;29;20059;-74
2022/09/25 01:53:21;;;;;;;2.20;1.80;;;9.00;99.90;;;;;;4933729;29;20408;-73
2022/09/25 01:55:53;;;;;;;3.03;2.15;;;9.00;99.90;;;;;;4935375;29;20059;-73
2022/09/25 01:58:27;;;;;;;2.00;1.80;;;9.10;99.90;;;;;;4934771;29;20055;-73
2022/09/25 02:01:00;;;;;;;3.50;1.73;;;9.00;99.90;;;;;;4934392;29;20575;-74
2022/09/25 02:03:32;;;;;;;4.00;2.28;;;9.00;99.90;;;;;;4935310;29;20036;-73
2022/09/25 02:06:04;;;;;;;2.10;2.00;;;9.00;99.90;;;;;;4918437;29;20048;-73
2022/09/25 02:08:36;;;;;;;2.47;1.77;;;9.00;99.90;;;;;;4935041;29;20532;-73
2022/09/25 02:11:06;;;;;;;3.97;2.00;;;9.00;99.90;;;;;;4933966;29;20055;-73
2022/09/25 02:13:38;;;;;;;3.38;2.33;;;8.90;99.90;;;;;;4935061;29;20499;-73
2022/09/25 02:16:11;;;;;;;2.45;1.88;;;8.90;99.90;;;;;;4935048;29;20058;-74
2022/09/25 02:21:29;;;;;;;7.07;2.20;;;8.90;99.90;;;;;;4934874;29;20055;-74
2022/09/25 02:24:04;;;;;;;6.13;2.03;;;9.00;99.90;;;;;;4917892;29;20051;-74
2022/09/25 02:26:35;;;;;;;2.58;2.15;;;8.90;99.90;;;;;;4917747;29;20543;-74
2022/09/25 02:29:02;;;;;;;4.60;2.55;;;8.90;99.90;;;;;;4932650;29;20484;-74
2022/09/25 02:31:37;;;;;;;3.72;1.80;;;8.90;99.90;;;;;;4934640;29;20071;-75
2022/09/25 02:34:05;;;;;;;3.15;2.30;;;8.90;99.90;;;;;;4934672;29;20110;-74
2022/09/25 02:36:32;;;;;;;2.63;2.22;;;8.90;99.90;;;;;;4933279;29;20154;-73
2022/09/25 02:39:02;;;;;;;5.75;2.30;;;9.00;99.90;;;;;;4934485;29;20051;-74
2022/09/25 02:41:41;;;;;;;3.95;2.33;;;9.00;99.90;;;;;;4930301;29;20428;-73
2022/09/25 02:44:17;;;;;;;3.53;2.15;;;9.00;99.90;;;;;;4932436;29;20055;-75
2022/09/25 02:46:56;;;;;;;4.75;2.72;;;9.00;99.90;;;;;;4933554;29;20051;-75
2022/09/25 02:49:31;;;;;;;4.68;2.35;;;9.00;99.90;;;;;;4933007;29;20051;-75
2022/09/25 02:52:06;;;;;;;3.90;2.28;;;9.00;99.90;;;;;;4932758;29;20435;-74
2022/09/25 02:54:40;;;;;;;2.20;2.10;;;9.00;99.90;;;;;;4934745;29;20051;-74
2022/09/25 02:57:12;;;;;;;2.50;2.03;;;9.00;99.90;;;;;;4932885;29;20067;-74
2022/09/25 02:59:45;;;;;;;2.70;2.40;;;9.00;99.90;;;;;;4933880;29;20059;-75
2022/09/25 03:02:15;;;;;;;;;;;8.90;99.90;;;;;;4934764;29;20060;-74
2022/09/25 03:04:45;;;;;;;3.03;2.38;;;8.90;99.90;;;;;;4934476;29;20343;-75
2022/09/25 03:07:13;;;;;;;4.80;2.53;;;8.90;99.90;;;;;;4933918;29;20083;-74
2022/09/25 03:09:43;;;;;;;6.40;2.60;;;8.90;99.90;;;;;;4934589;29;20075;-74
2022/09/25 03:12:10;;;;;;;4.40;2.30;;;8.90;99.90;;;;;;4934353;29;20071;-75
2022/09/25 03:14:37;;;;;;;4.50;2.47;;;8.80;99.90;;;;;;4932324;29;20095;-74
2022/09/25 03:17:07;;;;;;;2.60;2.40;;;8.80;99.90;;;;;;4915269;29;20052;-74
2022/09/25 03:19:37;;;;;;;2.80;2.53;;;8.80;99.90;;;;;;4928054;29;20049;-73
2022/09/25 03:22:04;;;;;;;3.35;2.55;;;8.80;99.90;;;;;;4934319;29;20055;-74
2022/09/25 03:24:32;;;;;;;6.32;2.63;;;8.80;99.90;;;;;;4932161;29;20196;-74
2022/09/25 03:26:59;;;;;;;3.95;2.17;;;8.80;99.90;;;;;;4933848;29;20056;-74
2022/09/25 03:29:26;;;;;;;7.55;2.20;;;8.80;99.90;;;;;;4932285;29;20047;-74
2022/09/25 03:31:53;;;;;;;2.40;2.20;;;8.80;99.90;;;;;;4932217;29;20057;-74
2022/09/25 03:34:21;;;;;;;4.88;2.55;;;8.80;99.90;;;;;;4931944;29;20048;-74
2022/09/25 03:36:50;;;;;;;6.55;2.58;;;8.80;99.90;;;;;;4932960;29;20059;-73
2022/09/25 03:39:17;;;;;;;4.90;2.70;;;8.90;99.90;;;;;;4932206;29;20138;-74
2022/09/25 03:41:45;;;;;;;4.47;2.30;;;8.90;99.90;;;;;;4932656;29;20472;-73
2022/09/25 03:44:12;;;;;;;3.47;2.55;;;8.90;99.90;;;;;;4933372;29;20047;-72
2022/09/25 03:46:39;;;;;;;5.13;2.63;;;8.80;99.90;;;;;;4933925;29;20094;-73
2022/09/25 03:49:06;;;;;;;5.03;2.75;;;8.90;99.90;;;;;;4934083;29;20583;-74
2022/09/25 03:51:34;;;;;;;2.95;2.55;;;8.90;99.90;;;;;;4932511;29;20110;-74
2022/09/25 03:54:03;;;;;;;4.60;2.17;;;8.90;99.90;;;;;;4948585;29;20072;-74
2022/09/25 03:56:31;;;;;;;6.72;3.05;;;8.90;99.90;;;;;;4933381;29;20048;-74
2022/09/25 03:58:59;;;;;;;4.07;2.28;;;8.90;99.90;;;;;;4933800;29;20047;-74
2022/09/25 04:01:28;;;;;;;5.93;2.35;;;8.90;99.90;;;;;;4932678;29;20048;-74
2022/09/25 04:03:55;;;;;;;3.15;1.80;;;8.90;99.90;;;;;;4932520;29;20048;-73
2022/09/25 04:06:24;;;;;;;4.03;2.13;;;8.90;99.90;;;;;;4933975;29;20155;-74
2022/09/25 04:08:52;;;;;;;3.80;2.22;;;8.90;99.90;;;;;;4916508;29;20052;-73
2022/09/25 04:11:22;;;;;;;5.93;2.67;;;8.90;99.90;;;;;;4953172;28;20083;-74
2022/09/25 04:13:51;;;;;;;4.90;2.20;;;8.90;99.90;;;;;;4949975;28;20059;-74
2022/09/25 04:16:19;;;;;;;5.95;2.80;;;8.90;99.90;;;;;;4932966;29;20055;-74
2022/09/25 04:18:47;;;;;;;5.78;2.63;;;9.00;99.90;;;;;;4933110;29;20505;-73
2022/09/25 04:21:15;;;;;;;4.15;2.42;;;9.00;99.90;;;;;;4933522;29;20068;-74
2022/09/25 04:24:46;;;;;;;3.22;2.78;;;9.00;99.90;;;;;;4931946;29;20051;-74
2022/09/25 04:26:31;;;;;;;5.53;3.33;;;9.00;99.90;;;;;;4933345;29;20075;-73
2022/09/25 04:29:00;;;;;;;4.38;2.97;;;9.10;99.90;;;;;;4931974;29;20592;-74
2022/09/25 04:31:27;;;;;;;4.47;2.60;;;9.10;99.90;;;;;;4927621;29;20075;-73
2022/09/25 04:33:54;;;;;;;4.85;2.78;;;9.10;99.90;;;;;;4933289;29;20055;-74
2022/09/25 04:36:21;;;;;;;8.27;2.50;;;9.10;99.90;;;;;;4919285;29;20095;-74
2022/09/25 04:38:48;;;;;;;5.32;2.70;;;9.10;99.90;;;;;;4935483;29;20051;-74
2022/09/25 04:41:18;;;;;;;6.55;2.70;;;9.10;99.90;;;;;;4936658;29;20062;-74
2022/09/25 04:43:47;;;;;;;5.15;2.80;;;9.20;99.90;;;;;;4937072;29;20060;-74
2022/09/25 04:46:14;;;;;;;7.82;2.83;;;9.10;99.90;;;;;;4936719;29;20070;-74
2022/09/25 04:48:44;;;;;;;4.55;2.67;;;9.10;99.90;;;;;;4935501;29;20130;-74
2022/09/25 04:51:12;;;;;;;10.88;2.80;;;9.10;99.90;;;;;;4936604;29;20073;-75
2022/09/25 04:53:39;;;;;;;5.13;2.80;;;9.00;99.90;;;;;;4935399;29;20111;-74
2022/09/25 04:56:10;;;;;;;3.90;2.60;;;9.00;99.90;;;;;;4935249;29;20052;-74
2022/09/25 04:58:38;;;;;;;5.43;2.60;;;9.00;99.90;;;;;;4936235;29;20074;-74
2022/09/25 05:01:08;;;;;;;5.72;2.50;;;9.00;99.90;;;;;;4935740;29;20044;-74
2022/09/25 05:03:35;;;;;;;5.85;2.70;;;9.00;99.90;;;;;;4936439;29;20062;-73
2022/09/25 05:06:03;;;;;;;7.75;2.90;;;9.00;99.90;;;;;;4935089;29;20527;-75
2022/09/25 05:08:30;;;;;;;19.67;3.13;;;9.00;99.90;;;;;;4934798;29;20048;-73
2022/09/25 05:10:57;;;;;;;9.35;2.80;;;9.00;99.90;;;;;;4936018;29;20061;-74
2022/09/25 05:13:24;;;;;;;7.18;3.38;;;9.00;99.90;;;;;;4934521;29;20142;-76
2022/09/25 05:15:51;;;;;;;4.70;2.08;;;9.00;99.90;;;;;;4934976;29;20051;-75
2022/09/25 05:18:22;;;;;;;7.35;2.80;;;9.00;99.90;;;;;;4935661;29;20046;-74
2022/09/25 05:20:50;;;;;;;8.10;3.88;;;9.00;99.90;;;;;;4936185;29;20055;-75
2022/09/25 05:23:17;;;;;;;3.63;2.30;;;9.00;99.90;;;;;;4934937;29;20042;-74
2022/09/25 05:25:50;;;;;;;3.63;2.58;;;9.00;99.90;;;;;;4926445;29;20051;-74
2022/09/25 05:28:17;;;;;;;;;;;9.00;99.90;;;;;;4936316;29;20108;-75
2022/09/25 05:30:44;;;;;;;4.72;2.58;;;9.00;99.90;;;;;;4935793;29;19926;-75
2022/09/25 05:33:11;;;;;;;6.88;2.55;;;9.00;99.90;;;;;;4935816;29;20072;-76
2022/09/25 05:35:40;;;;;;;11.93;3.38;;;9.00;99.90;;;;;;4933589;29;20044;-76
2022/09/25 05:38:07;;;;;;;6.82;3.03;;;9.00;99.90;;;;;;4935462;29;20048;-77
2022/09/25 05:40:37;;;;;;;5.95;3.47;;;9.00;99.90;;;;;;4934637;29;20044;-79
2022/09/25 05:43:05;;;;;;;6.38;3.28;;;9.00;99.90;;;;;;4934220;29;20523;-78
2022/09/25 05:45:32;;;;;;;4.00;3.40;;;9.00;99.90;;;;;;4935110;29;20498;-78
2022/09/25 05:48:01;;;;;;;6.45;3.58;;;9.00;99.90;;;;;;4934324;29;20055;-78
2022/09/25 05:50:31;;;;;;;11.80;3.70;;;9.00;99.90;;;;;;4935044;29;20424;-78
2022/09/25 05:53:00;;;;;;;4.18;3.67;;;9.00;99.90;;;;;;4918170;29;20441;-80
2022/09/25 05:55:28;;;;;;;7.90;3.75;;;9.10;99.90;;;;;;4919060;29;20058;-79
2022/09/25 05:58:00;;;;;;;5.45;3.47;;;9.10;99.90;;;;;;4935264;29;20066;-79
2022/09/25 06:00:28;;;;;;;7.78;3.63;;;9.10;99.90;;;;;;4935455;29;20053;-79
2022/09/25 06:02:55;;;;;;;4.20;3.03;;;9.10;99.90;;;;;;4934949;29;20052;-79
2022/09/25 06:05:22;;;;;;;6.80;3.17;;;9.10;99.90;;;;;;4933753;29;20043;-82
2022/09/25 06:07:53;;;;;;;5.75;3.42;;;9.20;99.90;;;;;;4930827;29;20134;-79
2022/09/25 06:10:24;;;;;;;4.00;2.97;;;9.20;99.90;;;;;;4928948;29;20138;-80
2022/09/25 06:12:53;;;;;;;4.13;3.63;;;9.20;99.90;;;;;;4935979;29;20119;-80
2022/09/25 06:15:22;;;;;;;8.73;3.60;;;9.20;99.90;;;;;;4916703;29;20450;-80
2022/09/25 06:17:50;;;;;;;9.90;3.97;;;9.20;99.90;;;;;;4914974;29;20520;-82
2022/09/25 06:20:17;;;;;;;8.10;3.60;;;9.30;99.90;;;;;;4931636;29;20050;-81
2022/09/25 06:22:51;;;;;;;9.18;3.67;;;9.30;99.90;;;;;;4934007;29;20052;-83
2022/09/25 06:25:18;;;;;;;5.15;3.72;;;9.30;99.90;;;;;;4935375;29;20426;-79
2022/09/25 06:27:47;;;;;;;6.72;3.15;;;9.40;99.90;;;;;;4933870;29;20576;-80
2022/09/25 06:30:19;;;;;;;4.35;2.90;;;9.40;99.90;;;;;;4934439;29;20142;-80
2022/09/25 06:32:46;;;;;;;6.20;3.33;;;9.50;99.90;;;;;;4933809;29;20134;-82
2022/09/25 06:35:13;;;;;;;5.95;2.83;;;9.60;99.90;;;;;;4933952;29;20051;-80
2022/09/25 06:37:41;;;;;;;2.17;1.98;;;9.60;99.90;;;;;;4935031;29;20063;-77
2022/09/25 06:40:09;;;;;;;2.53;1.95;;;9.70;99.90;;;;;;4935132;29;20547;-77
2022/09/25 06:42:36;;;;;;;7.07;2.00;;;9.70;99.90;;;;;;4917492;29;20058;-77
2022/09/25 06:45:06;;;;;;;4.07;2.40;;;9.70;99.90;;;;;;4945832;29;20459;-76
2022/09/25 06:47:33;;;;;;;1.60;1.50;;;9.80;99.90;;;;;;4932744;29;20075;-76
2022/09/25 06:50:00;;;;;;;3.10;2.20;;;9.90;99.90;;;;;;4929380;29;20072;-77
2022/09/25 06:52:58;;;;;;;2.15;1.95;;;9.90;99.90;;;;;;4931877;29;20039;-77
2022/09/25 06:55:31;;;;;;;1.85;1.50;;;9.90;99.90;;;;;;4928396;29;20078;-79
2022/09/25 06:58:07;;;;;;;10.55;2.38;;;10.00;99.90;;;;;;4929663;29;20146;-76
2022/09/25 07:00:35;;;;;;;1.10;1.00;;;10.00;99.90;;;;;;4934764;29;20138;-78
2022/09/25 07:05:48;;;;;;;1.60;1.27;;;10.10;99.90;;;;;;4927400;29;20054;-76
2022/09/25 07:08:19;;;;;;;2.13;1.00;;;10.10;99.90;;;;;;4933687;29;20051;-78
2022/09/25 07:10:48;;;;;;;3.65;3.35;;;10.10;99.90;;;;;;4929354;29;20143;-76
2022/09/25 07:13:16;;;;;;;1.92;1.70;;;10.10;99.90;;;;;;4933471;29;20093;-77
2022/09/25 07:15:51;;;;;;;2.88;1.60;;;10.10;99.90;;;;;;4934832;29;20504;-75
2022/09/25 07:18:24;;;;;;;4.05;1.50;;;10.10;99.90;;;;;;4935449;29;20071;-77
2022/09/25 07:20:53;;;;;;;2.33;1.20;;;10.10;99.90;;;;;;4933169;29;20076;-79
2022/09/25 07:23:22;;;;;;;2.33;0.77;;;10.20;99.90;;;;;;4933119;29;20043;-80
2022/09/25 07:25:50;;;;;;;2.38;1.00;;;10.20;99.90;;;;;;4930486;29;20055;-80
2022/09/25 07:28:18;;;;;;;3.25;1.30;;;10.10;99.90;;;;;;4914102;29;20143;-82
2022/09/25 07:30:48;;;;;;;2.80;1.50;;;10.20;99.90;;;;;;4915665;29;20091;-79
2022/09/25 07:33:16;;;;;;;1.23;1.13;;;10.10;99.90;;;;;;4927340;29;20055;-81
2022/09/25 07:35:43;;;;;;;5.18;1.23;;;10.10;99.90;;;;;;4933690;29;20054;-77
2022/09/25 07:38:13;;;;;;;0.70;0.70;;;10.20;99.90;;;;;;4950213;28;20055;-77
2022/09/25 07:40:40;;;;;;;2.55;1.33;;;10.20;99.90;;;;;;4939178;29;20623;-77
2022/09/25 07:43:08;;;;;;;1.95;1.25;;;10.20;99.90;;;;;;4938969;29;20050;-76
2022/09/25 07:45:37;;;;;;;1.00;0.90;;;10.20;99.90;;;;;;4936716;29;20050;-75
2022/09/25 07:48:06;;;;;;;4.30;1.33;;;10.20;99.90;;;;;;4944218;28;20193;-74
2022/09/25 07:50:34;;;;;;;1.05;0.90;;;10.30;99.90;;;;;;4919222;29;20485;-76
2022/09/25 07:53:01;;;;;;;1.48;1.27;;;10.30;99.90;;;;;;4909656;29;20068;-77
2022/09/25 07:55:28;;;;;;;2.08;0.75;;;10.30;99.90;;;;;;4921189;29;20103;-75
2022/09/25 07:57:57;;;;;;;1.35;0.80;;;10.30;99.90;;;;;;4941278;28;20141;-77
2022/09/25 08:00:24;;;;;;;3.00;1.40;;;10.30;99.90;;;;;;4928785;29;20126;-77
2022/09/25 08:02:59;;;;;;;1.40;1.30;;;10.30;99.90;;;;;;4933194;29;20044;-77
2022/09/25 08:05:28;;;;;;;2.80;0.75;;;10.30;99.90;;;;;;4945695;28;20091;-76
2022/09/25 08:07:55;;;;;;;1.15;0.85;;;10.30;99.90;;;;;;4929967;28;20094;-77
2022/09/25 08:10:23;;;;;;;1.55;0.75;;;10.40;99.90;;;;;;4945764;28;20062;-77
2022/09/25 08:12:50;;;;;;;0.80;0.70;;;10.30;99.90;;;;;;4931030;28;20441;-74
2022/09/25 08:15:18;;;;;;;1.13;0.95;;;10.30;99.90;;;;;;4949565;28;20051;-79
2022/09/25 08:17:46;;;;;;;6.85;1.02;;;10.30;99.90;;;;;;4951561;28;20047;-79
2022/09/25 08:20:13;;;;;;;1.17;0.95;;;10.30;99.90;;;;;;4950304;29;20551;-82
2022/09/25 08:22:42;;;;;;;1.40;1.00;;;10.30;99.90;;;;;;4952884;28;20041;-80
2022/09/25 08:25:10;;;;;;;0.85;0.85;;;10.30;99.90;;;;;;4947021;29;20102;-80
2022/09/25 08:27:39;;;;;;;8.93;5.53;;;10.30;99.90;;;;;;4951115;28;20051;-81
2022/09/25 08:30:12;;;;;;;2.30;1.30;;;10.30;99.90;;;;;;4926297;29;20044;-86
2022/09/25 08:32:39;;;;;;;1.02;0.95;;;10.30;99.90;;;;;;4925860;29;20547;-82
2022/09/25 08:35:07;;;;;;;3.83;1.20;;;10.20;99.90;;;;;;4932187;29;20122;-76
2022/09/25 08:37:35;;;;;;;1.15;0.75;;;10.30;99.90;;;;;;4930131;29;20079;-76
2022/09/25 08:40:03;;;;;;;2.25;1.00;;;10.30;99.90;;;;;;4927098;29;20066;-74
2022/09/25 08:42:34;;;;;;;3.75;2.30;;;10.30;99.90;;;;;;4933169;29;20094;-75
2022/09/25 08:50:38;;;;;;;1.70;1.00;;;10.30;99.90;;;;;;4938724;29;20047;-72
2022/09/25 08:53:09;;;;;;;5.25;0.90;;;10.30;99.90;;;;;;4930782;29;20052;-74
2022/09/25 08:58:29;;;;;;;6.07;1.20;;;10.30;99.90;;;;;;4946193;29;20061;-74
2022/09/25 09:01:00;;;;;;;3.63;0.85;;;10.30;99.90;;;;;;4934977;29;20056;-74
2022/09/25 09:03:30;;;;;;;1.42;0.80;;;10.30;99.90;;;;;;4929974;29;20044;-74
2022/09/25 09:06:02;;;;;;;1.27;1.00;;;10.30;99.90;;;;;;4932259;29;20077;-74
2022/09/25 09:08:32;;;;;;;1.30;0.60;;;10.30;99.90;;;;;;4933859;29;20051;-73
2022/09/25 09:11:06;;;;;;;3.35;0.90;;;10.30;99.90;;;;;;4944261;29;20095;-73
2022/09/25 09:13:39;;;;;;;0.60;0.60;;;10.30;99.90;;;;;;4943026;28;20382;-76
2022/09/25 09:16:07;;;;;;;;;;;10.20;99.90;;;;;;4941882;29;20472;-79
2022/09/25 09:18:38;;;;;;;7.63;1.30;;;10.20;99.90;;;;;;4952143;28;20217;-73
2022/09/25 09:21:13;;;;;;;1.55;0.80;;;10.20;99.90;;;;;;4923629;29;20149;-73
2022/09/25 09:23:51;;;;;;;10.70;2.72;;;10.30;99.90;;;;;;4928532;29;20047;-73
2022/09/25 09:26:25;;;;;;;1.02;0.75;;;10.20;99.90;;;;;;4935252;29;20055;-71
2022/09/25 09:29:04;;;;;;;2.22;2.00;;;10.30;99.90;;;;;;4936669;29;20059;-73
2022/09/25 09:31:45;;;;;;;18.08;4.70;;;10.40;99.90;;;;;;4941802;29;20534;-71
2022/09/25 09:34:34;;;;;;;1.35;1.25;;;10.50;99.90;;;;;;4931220;29;20048;-71
2022/09/25 09:37:14;;;;;;;1.63;1.23;;;10.80;99.90;;;;;;4889664;28;20943;-73
2022/09/25 09:39:48;;;;;;;3.30;1.40;;;10.90;99.90;;;;;;4909395;29;20535;-71
2022/09/25 09:42:24;;;;;;;1.88;1.10;;;11.00;99.90;;;;;;4934506;29;20112;-72
2022/09/25 09:45:00;;;;;;;2.60;2.05;;;11.10;99.90;;;;;;4932636;29;20501;-72
2022/09/25 09:47:40;;;;;;;1.58;1.17;;;11.20;99.90;;;;;;4931066;29;20410;-72
2022/09/25 09:50:21;;;;;;;1.80;1.00;;;11.30;99.90;;;;;;4900556;29;20044;-73
2022/09/25 09:52:53;;;;;;;1.83;1.00;;;11.30;99.90;;;;;;4922500;29;20482;-73
2022/09/25 09:55:25;;;;;;;3.85;2.35;;;11.40;99.90;;;;;;4933052;29;20075;-72
2022/09/25 09:57:57;;;;;;;1.30;1.05;;;11.40;99.90;;;;;;4932922;29;20163;-72
2022/09/25 10:00:24;;;;;;;2.85;0.63;;;11.30;99.90;;;;;;4932665;29;20047;-71
2022/09/25 10:02:58;;;;;;;1.80;0.90;;;11.30;99.90;;;;;;4930997;29;20524;-74
2022/09/25 10:05:27;;;;;;;2.28;1.48;;;11.20;99.90;;;;;;4930624;29;20119;-71
2022/09/25 10:07:55;;;;;;;0.98;0.90;;;11.20;99.90;;;;;;4933980;29;20126;-72
2022/09/25 10:10:30;;;;;;;1.65;0.98;;;11.20;99.90;;;;;;4932582;29;20047;-73
2022/09/25 10:13:04;;;;;;;1.50;0.70;;;11.20;99.90;;;;;;4925916;29;20047;-73
2022/09/25 10:15:34;;;;;;;0.60;0.60;;;11.10;99.90;;;;;;4937592;29;20075;-72
2022/09/25 10:18:03;;;;;;;0.60;0.60;;;11.10;99.90;;;;;;4948381;28;20095;-73
2022/09/25 10:20:40;;;;;;;1.20;0.90;;;11.10;99.90;;;;;;4941652;29;20078;-73
2022/09/25 10:23:27;;;;;;;0.75;0.63;;;11.10;99.90;;;;;;4909185;29;20559;-74
2022/09/25 10:25:55;;;;;;;2.00;0.80;;;11.10;99.90;;;;;;4916688;29;20419;-73
2022/09/25 10:28:28;;;;;;;2.17;0.88;;;11.10;99.90;;;;;;4932116;29;20055;-82
2022/09/25 10:30:57;;;;;;;1.58;1.13;;;11.10;99.90;;;;;;4931208;29;20133;-80
2022/09/25 10:33:27;;;;;;;0.70;0.70;;;11.20;99.90;;;;;;4941388;28;20040;-73
2022/09/25 10:35:55;;;;;;;0.80;0.80;;;11.20;99.90;;;;;;4929585;29;20047;-75
2022/09/25 10:38:33;;;;;;;1.55;0.90;;;11.20;99.90;;;;;;4934396;29;20059;-74
2022/09/25 10:41:04;;;;;;;1.20;1.10;;;11.20;99.90;;;;;;4933181;29;20054;-75
2022/09/25 10:43:33;;;;;;;2.35;1.40;;;11.20;99.90;;;;;;4930372;29;20466;-81
2022/09/25 10:52:12;;;;;;;1.20;1.10;;;11.00;99.90;;;;;;4947040;29;20402;-73
2022/09/25 10:54:41;;;;;;;0.90;0.70;;;11.00;99.90;;;;;;4932066;29;20075;-73
2022/09/25 10:57:17;;;;;;;1.38;0.70;;;11.10;99.90;;;;;;4925029;29;20047;-74
2022/09/25 10:59:49;;;;;;;1.30;0.70;;;11.10;99.90;;;;;;4927495;29;20059;-74
2022/09/25 11:02:30;;;;;;;1.63;0.80;;;11.10;99.90;;;;;;4933357;29;20056;-80
2022/09/25 11:04:57;;;;;;;0.85;0.70;;;11.00;99.90;;;;;;4926640;29;20083;-81
2022/09/25 11:07:26;;;;;;;1.38;0.75;;;11.00;99.90;;;;;;4913756;29;20044;-81
2022/09/25 11:09:54;;;;;;;1.38;1.00;;;11.00;99.90;;;;;;4928802;29;20052;-78
2022/09/25 11:12:23;;;;;;;1.05;0.70;;;10.90;99.90;;;;;;4930171;29;20448;-77
2022/09/25 11:14:57;;;;;;;1.63;0.50;;;10.90;99.90;;;;;;4940845;28;20496;-72
2022/09/25 11:17:37;;;;;;;0.90;0.90;;;10.90;99.90;;;;;;4933789;29;20411;-73
2022/09/25 11:20:28;;;;;;;3.10;0.98;;;10.90;99.90;;;;;;4931050;29;20052;-80
2022/09/25 11:23:13;;;;;;;3.80;0.98;;;10.90;99.90;;;;;;4930284;29;20055;-76
2022/09/25 11:25:46;;;;;;;1.90;0.57;;;10.90;99.90;;;;;;4932323;29;20075;-78
2022/09/25 11:28:20;;;;;;;2.17;1.02;;;10.90;99.90;;;;;;4933932;29;20122;-78
2022/09/25 11:30:54;;;;;;;2.20;0.80;;;10.80;99.90;;;;;;4914786;29;20154;-82
2022/09/25 11:33:28;;;;;;;1.20;0.80;;;10.90;99.90;;;;;;4932223;29;20063;-79
2022/09/25 11:36:00;;;;;;;2.00;0.73;;;10.80;99.90;;;;;;4927784;29;20520;-74
2022/09/25 11:41:31;;;;;;;2.45;0.90;;;10.90;99.90;;;;;;4926562;29;20122;-72
2022/09/25 11:44:13;;;;;;;1.67;0.90;;;10.90;99.90;;;;;;4932939;29;20055;-73
2022/09/25 11:46:55;;;;;;;4.70;1.27;;;10.90;99.90;;;;;;4929662;29;20048;-72
2022/09/25 11:49:27;;;;;;;1.77;1.25;;;10.90;99.90;;;;;;4930326;29;20051;-74
2022/09/25 11:52:19;;;;;;;1.48;1.00;;;10.90;99.90;;;;;;4939364;29;20500;-74
2022/09/25 11:55:07;;;;;;;4.88;1.23;;;10.90;99.90;;;;;;4949230;28;20154;-73
2022/09/25 11:57:41;;;;;;;1.23;1.10;;;10.90;99.90;;;;;;4928432;29;20143;-74
2022/09/25 12:00:14;;;;;;;1.88;0.95;;;10.80;99.90;;;;;;4921122;29;20051;-74
2022/09/25 12:03:07;;;;;;;1.45;0.90;;;10.80;99.90;;;;;;4925699;29;20043;-74
2022/09/25 12:05:51;;;;;;;3.70;1.20;;;10.80;99.90;;;;;;4932916;29;20497;-80
2022/09/25 12:08:28;;;;;;;1.80;0.88;;;10.80;99.90;;;;;;4937298;28;20509;-80
2022/09/25 12:11:12;;;;;;;2.92;1.00;;;10.80;99.90;;;;;;4940105;29;20060;-76
2022/09/25 12:13:48;;;;;;;1.58;0.90;;;10.80;99.90;;;;;;4926698;29;20051;-78
2022/09/25 12:16:23;;;;;;;0.98;0.77;;;10.80;99.90;;;;;;4926065;29;20559;-79
2022/09/25 12:19:11;;;;;;;2.90;0.93;;;10.80;99.90;;;;;;4931054;29;20068;-80
2022/09/25 12:21:46;;;;;;;0.70;0.70;;;10.80;99.90;;;;;;4927999;29;20500;-82
2022/09/25 12:24:25;;;;;;;6.85;1.17;;;10.90;99.90;;;;;;4925146;29;20513;-79
2022/09/25 12:27:03;;;;;;;2.95;1.30;;;10.90;99.90;;;;;;4928085;29;20122;-80
2022/09/25 12:29:47;;;;;;;1.17;0.60;;;10.90;99.90;;;;;;4920905;29;20596;-81
2022/09/25 12:32:26;;;;;;;1.65;1.30;;;11.00;99.90;;;;;;4926199;29;20352;-82
2022/09/25 12:35:13;;;;;;;3.97;1.92;;;11.00;99.90;;;;;;4925412;29;20457;-74
2022/09/25 12:37:48;;;;;;;2.15;0.95;;;11.10;99.90;;;;;;4929844;29;20052;-74
2022/09/25 12:40:22;;;;;;;1.48;0.88;;;11.00;99.90;;;;;;4925736;29;20141;-75
2022/09/25 12:42:56;;;;;;;2.00;0.70;;;11.00;99.90;;;;;;4923353;29;20051;-74
2022/09/25 12:45:31;;;;;;;3.53;1.35;;;10.90;99.90;;;;;;4930103;29;20067;-76
2022/09/25 12:48:10;;;;;;;2.47;0.80;;;10.90;99.90;;;;;;4930898;29;20050;-73
2022/09/25 12:50:56;;;;;;;0.80;0.80;;;10.90;99.90;;;;;;4931327;29;20047;-75
2022/09/25 12:53:31;;;;;;;4.60;3.55;;;10.90;99.90;;;;;;4924684;29;20139;-78
2022/09/25 12:56:03;;;;;;;;;;;11.00;99.90;;;;;;4914937;29;20052;-82
2022/09/25 12:58:45;;;;;;;1.00;0.90;;;11.00;99.90;;;;;;4908235;29;20013;-83
2022/09/25 13:01:20;;;;;;;2.57;1.40;;;11.00;99.90;;;;;;4922502;29;20052;-77
2022/09/25 13:03:56;;;;;;;3.17;1.13;;;11.00;99.90;;;;;;4933564;29;20135;-76
2022/09/25 13:06:33;;;;;;;1.23;1.13;;;11.10;99.90;;;;;;4926659;29;20060;-79
2022/09/25 13:09:07;;;;;;;1.45;0.70;;;11.10;99.90;;;;;;4935660;29;20122;-73
2022/09/25 13:11:44;;;;;;;2.78;1.10;;;11.00;99.90;;;;;;4933691;29;20062;-74
2022/09/25 13:14:31;;;;;;;3.00;1.20;;;11.00;99.90;;;;;;4934408;29;20123;-74
2022/09/25 13:17:00;;;;;;;17.48;11.13;;;11.00;99.90;;;;;;4915335;29;20056;-73
2022/09/25 13:19:28;;;;;;;5.15;4.38;;;11.00;99.90;;;;;;4927113;29;20677;-73
2022/09/25 13:22:03;;;;;;;2.17;1.98;;;11.00;99.90;;;;;;4937502;29;20056;-72
2022/09/25 13:24:31;;;;;;;2.65;1.13;;;11.00;99.90;;;;;;4916719;29;20146;-72
2022/09/25 13:27:03;;;;;;;1.33;1.00;;;11.00;99.90;;;;;;4932776;29;20044;-73
2022/09/25 13:29:35;;;;;;;4.10;1.08;;;11.00;99.90;;;;;;4931999;29;20048;-72
2022/09/25 13:32:07;;;;;;;1.45;1.10;;;10.90;99.90;;;;;;4927246;29;20078;-79
2022/09/25 13:34:39;;;;;;;2.65;1.15;;;10.90;99.90;;;;;;4934036;29;20083;-77
2022/09/25 13:37:10;;;;;;;1.25;1.15;;;10.90;99.90;;;;;;4932094;29;20423;-78
2022/09/25 13:42:28;;;;;;;1.30;0.95;;;10.90;99.90;;;;;;4929241;29;20063;-81
2022/09/25 13:45:13;;;;;;;1.15;1.05;;;10.80;99.90;;;;;;4931875;29;20059;-78